Time;durP1;ratioP1;P1;durP2;ratioP2;P2;SDS_P1;SDS_P2;PMS_P1;PMS_P2;Temp;Humidity;BMP_temperature;BMP_pressure;BME280_temperature;BME280_humidity;BME280_pressure;Samples;Min_cycle;Max_cycle;Signal;HPM_P1;HPM_P2
2024/01/18 00:02:07;;;;;;;27.77;18.70;;;;;;;-1.02;97.63;99317.38;5037384;28;20033;-66
2024/01/18 00:04:32;;;;;;;28.13;18.70;;;;;;;-1.14;98.03;99303.66;5031856;28;20093;-66
2024/01/18 00:06:58;;;;;;;29.40;18.73;;;;;;;-1.08;97.88;99313.53;5043145;28;20037;-66
2024/01/18 00:09:23;;;;;;;30.50;19.13;;;;;;;-1.09;98.34;99327.50;5043086;28;20033;-67
2024/01/18 00:11:48;;;;;;;31.87;19.27;;;;;;;-1.10;98.46;99325.88;5043188;28;20108;-66
2024/01/18 00:14:14;;;;;;;34.40;19.70;;;;;;;-1.08;98.42;99333.53;5041479;28;20021;-66
2024/01/18 00:16:39;;;;;;;35.27;20.97;;;;;;;-1.07;98.82;99341.22;5042939;28;20032;-67
2024/01/18 00:19:04;;;;;;;33.43;21.27;;;;;;;-1.05;98.82;99346.28;5040447;28;20021;-66
2024/01/18 00:21:29;;;;;;;29.67;21.17;;;;;;;-1.03;98.98;99353.03;5037926;28;20492;-67
2024/01/18 00:23:55;;;;;;;35.30;21.43;;;;;;;-1.03;99.06;99357.41;5039103;28;20018;-66
2024/01/18 00:26:20;;;;;;;35.13;21.20;;;;;;;-1.04;99.08;99351.38;5040771;28;20036;-67
2024/01/18 00:28:45;;;;;;;32.70;21.07;;;;;;;-1.04;99.13;99350.53;5040384;28;20117;-67
2024/01/18 00:31:11;;;;;;;32.13;19.33;;;;;;;-1.07;99.01;99358.63;5041333;28;20032;-66
2024/01/18 00:33:36;;;;;;;32.10;19.50;;;;;;;-1.09;98.83;99363.97;5046556;28;20078;-66
2024/01/18 00:36:01;;;;;;;32.10;19.30;;;;;;;-1.09;98.83;99366.59;5044909;28;20502;-66
2024/01/18 00:38:27;;;;;;;30.57;20.57;;;;;;;-1.11;99.22;99357.25;5043159;28;20043;-66
2024/01/18 00:40:52;;;;;;;32.97;20.73;;;;;;;-1.11;99.11;99368.50;5044257;28;20044;-67
2024/01/18 00:43:17;;;;;;;31.47;20.40;;;;;;;-1.11;99.38;99365.06;5048750;28;20714;-66
2024/01/18 00:45:43;;;;;;;29.53;18.90;;;;;;;-1.14;99.45;99366.16;5040681;28;20034;-67
2024/01/18 00:48:08;;;;;;;25.47;17.83;;;;;;;-1.15;99.33;99368.91;5040046;28;20036;-66
2024/01/18 00:50:33;;;;;;;29.93;19.63;;;;;;;-1.20;99.53;99374.47;5046356;28;20032;-66
2024/01/18 00:52:58;;;;;;;31.60;18.67;;;;;;;-1.22;99.63;99367.75;5044038;28;20497;-66
2024/01/18 00:55:24;;;;;;;29.40;19.43;;;;;;;-1.28;99.46;99376.91;5039170;28;20039;-66
2024/01/18 00:57:51;;;;;;;29.70;18.50;;;;;;;-1.36;99.70;99372.38;5039254;28;20100;-66
2024/01/18 01:00:16;;;;;;;30.50;19.37;;;;;;;-1.37;99.46;99377.72;5051727;28;20671;-66
2024/01/18 01:02:41;;;;;;;31.93;20.10;;;;;;;-1.37;99.85;99375.09;5043937;28;20072;-66
2024/01/18 01:05:07;;;;;;;28.97;18.63;;;;;;;-1.38;99.97;99378.66;5046445;28;20107;-67
2024/01/18 01:07:32;;;;;;;32.93;20.10;;;;;;;-1.35;100.00;99383.63;5050161;28;20035;-66
2024/01/18 01:09:58;;;;;;;30.40;20.53;;;;;;;-1.35;100.00;99386.22;5053161;28;20095;-67
2024/01/18 01:12:23;;;;;;;31.27;19.23;;;;;;;-1.36;100.00;99395.81;5045123;28;20061;-67
2024/01/18 01:14:48;;;;;;;29.50;20.37;;;;;;;-1.37;100.00;99398.53;5044305;28;20818;-66
2024/01/18 01:17:14;;;;;;;31.37;19.90;;;;;;;-1.41;100.00;99391.94;5043285;28;20506;-66
2024/01/18 01:19:40;;;;;;;32.03;19.73;;;;;;;-1.45;100.00;99400.94;5043929;28;20056;-66
2024/01/18 01:22:05;;;;;;;30.93;20.07;;;;;;;-1.49;100.00;99408.19;5043033;28;20487;-66
2024/01/18 01:24:31;;;;;;;31.73;19.77;;;;;;;-1.53;100.00;99400.78;5045178;28;20107;-66
2024/01/18 01:26:56;;;;;;;34.60;20.33;;;;;;;-1.50;100.00;99405.72;5043532;28;20029;-66
2024/01/18 01:29:22;;;;;;;30.13;19.57;;;;;;;-1.51;100.00;99407.50;5057234;28;20051;-66
2024/01/18 01:31:48;;;;;;;31.07;19.90;;;;;;;-1.51;100.00;99406.69;5047101;28;20033;-66
2024/01/18 01:34:14;;;;;;;32.47;19.57;;;;;;;-1.51;100.00;99402.28;5038869;28;20029;-66
2024/01/18 01:36:39;;;;;;;31.67;20.07;;;;;;;-1.49;100.00;99407.38;5043516;28;20029;-66
2024/01/18 01:39:04;;;;;;;29.70;19.37;;;;;;;-1.45;100.00;99413.97;5038815;28;20041;-66
2024/01/18 01:41:30;;;;;;;30.80;19.77;;;;;;;-1.45;100.00;99408.75;5046816;28;20103;-66
2024/01/18 01:43:59;;;;;;;32.20;20.33;;;;;;;-1.44;100.00;99406.06;5045135;28;20489;-66
2024/01/18 01:46:25;;;;;;;;;;;;;;;-1.36;100.00;99413.22;5041120;28;20028;-66
2024/01/18 01:48:55;;;;;;;32.10;19.50;;;;;;;-1.45;100.00;99414.78;5042597;28;20844;-66
2024/01/18 01:51:20;;;;;;;32.70;19.63;;;;;;;-1.49;100.00;99418.59;5041644;28;20024;-66
2024/01/18 01:53:46;;;;;;;30.60;19.37;;;;;;;-1.52;100.00;99418.88;5041544;28;20055;-66
2024/01/18 01:56:11;;;;;;;31.50;18.73;;;;;;;-1.57;100.00;99419.25;5040669;28;20040;-66
2024/01/18 01:58:38;;;;;;;28.23;18.60;;;;;;;-1.64;100.00;99425.09;5038345;28;20082;-66
2024/01/18 02:01:03;;;;;;;31.63;18.70;;;;;;;-1.69;100.00;99425.50;5043715;28;20826;-66
2024/01/18 02:03:29;;;;;;;30.97;19.87;;;;;;;-1.70;100.00;99430.84;5035197;28;20056;-67
2024/01/18 02:05:54;;;;;;;30.47;20.60;;;;;;;-1.71;100.00;99422.19;5039777;28;20104;-64
2024/01/18 02:08:20;;;;;;;36.27;20.77;;;;;;;-1.71;100.00;99423.97;5042200;28;20029;-63
2024/01/18 02:10:45;;;;;;;29.53;19.87;;;;;;;-1.74;100.00;99427.63;5038346;28;20110;-64
2024/01/18 02:13:12;;;;;;;30.97;19.47;;;;;;;-1.72;100.00;99422.31;5043422;28;20024;-64
2024/01/18 02:15:38;;;;;;;33.77;19.90;;;;;;;-1.73;100.00;99431.91;5048830;28;20433;-64
2024/01/18 02:18:03;;;;;;;30.63;20.00;;;;;;;-1.73;100.00;99434.50;5042979;28;20530;-64
2024/01/18 02:20:28;;;;;;;33.50;20.47;;;;;;;-1.74;100.00;99432.84;5042159;28;20033;-65
2024/01/18 02:22:55;;;;;;;35.73;21.50;;;;;;;-1.72;100.00;99432.75;5037142;28;20024;-66
2024/01/18 02:25:22;;;;;;;30.60;20.50;;;;;;;-1.71;100.00;99437.00;5036799;28;20029;-66
2024/01/18 02:27:47;;;;;;;32.73;20.37;;;;;;;-1.71;100.00;99430.00;5040355;28;20510;-66
2024/01/18 02:30:13;;;;;;;33.33;21.37;;;;;;;-1.66;100.00;99437.44;5036414;28;20025;-66
2024/01/18 02:32:38;;;;;;;32.80;21.13;;;;;;;-1.63;100.00;99426.75;5034866;28;20533;-66
2024/01/18 02:35:04;;;;;;;34.97;21.23;;;;;;;-1.63;100.00;99431.97;5042433;28;20059;-66
2024/01/18 02:37:30;;;;;;;33.73;20.83;;;;;;;-1.60;100.00;99429.94;5034962;28;20017;-66
2024/01/18 02:39:56;;;;;;;30.73;20.40;;;;;;;-1.64;100.00;99419.91;5042388;28;20032;-66
2024/01/18 02:42:21;;;;;;;31.40;20.50;;;;;;;-1.59;100.00;99425.53;5039336;28;20412;-66
2024/01/18 02:44:47;;;;;;;32.70;20.77;;;;;;;-1.56;100.00;99435.69;5046817;28;20032;-66
2024/01/18 02:47:13;;;;;;;32.40;19.50;;;;;;;-1.55;100.00;99432.13;5039542;28;20033;-66
2024/01/18 02:49:38;;;;;;;31.73;19.90;;;;;;;-1.56;100.00;99436.53;5036708;28;20021;-66
2024/01/18 02:52:05;;;;;;;32.97;19.67;;;;;;;-1.56;100.00;99438.31;5034263;28;20021;-66
2024/01/18 02:54:30;;;;;;;30.00;19.13;;;;;;;-1.52;100.00;99438.88;5051773;28;20421;-66
2024/01/18 02:56:56;;;;;;;27.10;18.50;;;;;;;-1.50;100.00;99444.78;5036350;28;20021;-67
2024/01/18 02:59:21;;;;;;;29.10;18.67;;;;;;;-1.47;100.00;99441.91;5042103;28;20408;-66
2024/01/18 03:01:46;;;;;;;29.40;18.43;;;;;;;-1.44;100.00;99449.50;5039250;28;20104;-66
2024/01/18 03:04:11;;;;;;;29.23;18.83;;;;;;;-1.52;100.00;99431.88;5033961;28;21739;-66
2024/01/18 03:06:37;;;;;;;33.17;19.00;;;;;;;-1.47;100.00;99442.72;5050515;28;20024;-66
2024/01/18 03:09:02;;;;;;;28.60;17.63;;;;;;;-1.48;100.00;99440.25;5044630;28;20025;-66
2024/01/18 03:11:27;;;;;;;30.03;17.97;;;;;;;-1.49;100.00;99447.25;5042114;28;20489;-67
2024/01/18 03:13:53;;;;;;;27.53;17.27;;;;;;;-1.51;100.00;99437.91;5041443;28;20021;-66
2024/01/18 03:16:18;;;;;;;30.07;18.20;;;;;;;-1.52;100.00;99449.28;5050193;28;20104;-66
2024/01/18 03:18:46;;;;;;;28.53;16.67;;;;;;;-1.59;100.00;99438.56;5041899;28;20498;-66
2024/01/18 03:21:11;;;;;;;30.27;17.10;;;;;;;-1.58;100.00;99451.44;5052126;28;20039;-66
2024/01/18 03:23:36;;;;;;;28.87;17.43;;;;;;;-1.60;100.00;99445.53;5045934;28;20104;-66
2024/01/18 03:26:02;;;;;;;27.03;17.00;;;;;;;-1.63;100.00;99453.59;5039135;28;20437;-66
2024/01/18 03:28:27;;;;;;;28.00;17.40;;;;;;;-1.66;100.00;99459.06;5041089;28;20029;-66
2024/01/18 03:30:52;;;;;;;25.10;17.10;;;;;;;-1.71;100.00;99458.63;5042583;28;20059;-66
2024/01/18 03:33:18;;;;;;;25.73;17.17;;;;;;;-1.74;100.00;99474.47;5037425;28;20033;-66
2024/01/18 03:35:43;;;;;;;26.33;17.60;;;;;;;-1.78;100.00;99470.47;5039583;28;20036;-66
2024/01/18 03:38:08;;;;;;;28.30;17.33;;;;;;;-1.80;100.00;99474.97;5040791;28;20043;-66
2024/01/18 03:40:35;;;;;;;27.83;17.03;;;;;;;-1.83;100.00;99475.22;5047207;28;20029;-66
2024/01/18 03:43:01;;;;;;;27.53;18.13;;;;;;;-1.89;100.00;99467.94;5038926;28;20110;-66
2024/01/18 03:45:26;;;;;;;27.87;16.80;;;;;;;-1.92;100.00;99479.41;5040689;28;20024;-67
2024/01/18 03:47:51;;;;;;;29.07;17.67;;;;;;;-1.95;100.00;99471.03;5044980;28;20073;-66
2024/01/18 03:50:17;;;;;;;25.43;15.77;;;;;;;-1.98;100.00;99481.69;5031012;28;20049;-66
2024/01/18 03:52:42;;;;;;;26.80;16.10;;;;;;;-2.02;100.00;99480.31;5039973;28;20389;-66
2024/01/18 03:55:08;;;;;;;23.50;16.00;;;;;;;-2.10;100.00;99486.09;5037157;28;20033;-66
2024/01/18 03:57:33;;;;;;;23.77;15.77;;;;;;;-2.16;100.00;99488.38;5035071;28;20038;-66
2024/01/18 03:59:59;;;;;;;25.37;15.93;;;;;;;-2.24;100.00;99487.22;5037910;28;20089;-64
2024/01/18 04:02:25;;;;;;;26.07;15.30;;;;;;;-2.28;100.00;99487.59;5044035;28;20107;-64
2024/01/18 04:04:50;;;;;;;22.70;14.40;;;;;;;-2.34;100.00;99485.44;5037604;28;20379;-63
2024/01/18 04:07:17;;;;;;;27.77;15.90;;;;;;;-2.37;100.00;99483.91;5042854;28;20078;-63
2024/01/18 04:09:43;;;;;;;25.30;16.27;;;;;;;-2.40;100.00;99485.94;5051678;28;20021;-63
2024/01/18 04:12:08;;;;;;;24.00;15.07;;;;;;;-2.43;100.00;99487.00;5041246;28;20679;-63
2024/01/18 04:14:34;;;;;;;27.77;15.87;;;;;;;-2.48;100.00;99480.53;5043140;28;20303;-63
2024/01/18 04:16:59;;;;;;;22.13;15.07;;;;;;;-2.47;100.00;99497.78;5040891;28;20024;-64
2024/01/18 04:19:25;;;;;;;25.20;15.37;;;;;;;-2.53;100.00;99506.88;5048105;28;20025;-63
2024/01/18 04:21:50;;;;;;;22.97;15.23;;;;;;;-2.63;100.00;99504.16;5047658;28;20035;-64
2024/01/18 04:24:16;;;;;;;21.73;14.37;;;;;;;-2.72;100.00;99506.66;5043925;28;20032;-63
2024/01/18 04:26:41;;;;;;;27.23;15.40;;;;;;;-2.85;100.00;99499.00;5043768;28;20107;-63
2024/01/18 04:29:07;;;;;;;24.17;15.27;;;;;;;-2.98;100.00;99491.31;5043283;28;20037;-63
2024/01/18 04:31:33;;;;;;;28.50;14.50;;;;;;;-3.00;100.00;99497.56;5042018;28;20032;-63
2024/01/18 04:33:59;;;;;;;23.13;14.63;;;;;;;-3.01;100.00;99511.50;5039932;28;20052;-63
2024/01/18 04:36:24;;;;;;;23.07;15.17;;;;;;;-3.02;100.00;99522.81;5044823;28;20029;-64
2024/01/18 04:38:50;;;;;;;23.03;14.70;;;;;;;-3.01;100.00;99525.31;5044435;28;20033;-63
2024/01/18 04:41:15;;;;;;;25.70;15.33;;;;;;;-2.99;100.00;99526.00;5044595;28;20040;-63
2024/01/18 04:43:40;;;;;;;26.47;15.53;;;;;;;-2.96;100.00;99538.75;5043183;28;20486;-63
2024/01/18 04:46:06;;;;;;;25.67;15.10;;;;;;;-3.01;100.00;99529.66;5041351;28;20063;-63
2024/01/18 04:48:31;;;;;;;26.70;15.90;;;;;;;-2.98;100.00;99530.25;5046382;28;20446;-64
2024/01/18 04:50:57;;;;;;;27.80;15.93;;;;;;;-2.99;100.00;99539.00;5043978;28;20060;-63
2024/01/18 04:53:23;;;;;;;22.87;15.83;;;;;;;-2.99;100.00;99532.97;5042304;28;20433;-63
2024/01/18 04:55:49;;;;;;;25.10;16.10;;;;;;;-2.98;100.00;99538.06;5047638;28;20551;-63
2024/01/18 04:58:14;;;;;;;23.30;15.27;;;;;;;-3.01;100.00;99546.09;5047065;28;20025;-63
2024/01/18 05:00:40;;;;;;;26.30;15.50;;;;;;;-3.03;100.00;99550.56;5047987;28;20020;-63
2024/01/18 05:03:05;;;;;;;28.53;16.33;;;;;;;-3.02;100.00;99551.41;5043080;28;20076;-63
2024/01/18 05:05:30;;;;;;;26.67;16.83;;;;;;;-2.97;100.00;99552.69;5037974;28;20024;-63
2024/01/18 05:07:56;;;;;;;25.80;16.23;;;;;;;-3.01;100.00;99559.06;5044181;28;20018;-63
2024/01/18 05:10:21;;;;;;;25.17;16.20;;;;;;;-3.02;100.00;99556.59;5045488;28;20021;-63
2024/01/18 05:12:48;;;;;;;28.30;16.17;;;;;;;-3.00;100.00;99568.50;5040324;28;20025;-63
2024/01/18 05:15:13;;;;;;;23.00;15.70;;;;;;;-3.01;100.00;99559.06;5058973;28;20036;-63
2024/01/18 05:17:40;;;;;;;24.80;15.93;;;;;;;-3.01;100.00;99564.25;5039474;28;20025;-63
2024/01/18 05:20:07;;;;;;;27.00;16.63;;;;;;;-2.99;100.00;99564.16;5038524;28;20044;-63
2024/01/18 05:22:33;;;;;;;26.43;17.10;;;;;;;-3.04;100.00;99569.69;5035221;28;20083;-66
2024/01/18 05:24:59;;;;;;;24.90;16.40;;;;;;;-3.06;100.00;99566.38;5040664;28;20025;-66
2024/01/18 05:27:30;;;;;;;24.63;16.87;;;;;;;-3.04;100.00;99571.47;5036900;28;20090;-66
2024/01/18 05:29:58;;;;;;;23.70;15.90;;;;;;;-3.06;100.00;99573.34;5038501;28;20119;-66
2024/01/18 05:32:24;;;;;;;27.87;16.50;;;;;;;-3.06;100.00;99575.94;5048748;28;20029;-66
2024/01/18 05:34:50;;;;;;;23.87;14.93;;;;;;;-3.09;100.00;99571.81;5039660;28;20278;-66
2024/01/18 05:37:16;;;;;;;24.03;14.77;;;;;;;-3.14;100.00;99587.72;5041540;28;20029;-65
2024/01/18 05:39:42;;;;;;;26.70;15.73;;;;;;;-3.17;100.00;99587.97;5044977;28;20041;-66
2024/01/18 05:42:07;;;;;;;26.10;16.03;;;;;;;-3.23;100.00;99600.56;5048658;28;20040;-65
2024/01/18 05:44:33;;;;;;;24.70;14.80;;;;;;;-3.28;100.00;99594.88;5050879;28;20738;-65
2024/01/18 05:46:58;;;;;;;23.03;14.40;;;;;;;-3.39;100.00;99592.25;5041849;28;20083;-66
2024/01/18 05:49:24;;;;;;;23.93;14.33;;;;;;;-3.49;100.00;99605.88;5041891;28;20527;-65
2024/01/18 05:51:49;;;;;;;20.23;13.83;;;;;;;-3.57;100.00;99613.41;5040818;28;20112;-65
2024/01/18 05:54:15;;;;;;;24.57;13.77;;;;;;;-3.66;100.00;99608.88;5044990;28;20100;-65
2024/01/18 05:56:40;;;;;;;23.87;13.63;;;;;;;-3.74;100.00;99613.81;5047675;28;20032;-65
2024/01/18 05:59:06;;;;;;;21.27;13.53;;;;;;;-3.76;100.00;99615.66;5042761;28;20049;-65
2024/01/18 06:01:32;;;;;;;23.20;14.07;;;;;;;-3.78;100.00;99618.38;5039549;28;20819;-66
2024/01/18 06:03:57;;;;;;;23.20;13.57;;;;;;;-3.84;100.00;99624.00;5040815;28;20116;-65
2024/01/18 06:06:22;;;;;;;23.20;13.40;;;;;;;-3.88;100.00;99626.91;5038146;28;20044;-65
2024/01/18 06:08:48;;;;;;;24.43;13.67;;;;;;;-3.87;100.00;99638.94;5038004;28;20483;-65
2024/01/18 06:11:14;;;;;;;21.77;13.93;;;;;;;-3.89;100.00;99630.44;5033681;28;20037;-66
2024/01/18 06:13:40;;;;;;;21.80;13.67;;;;;;;-3.91;100.00;99633.16;5036433;28;20737;-65
2024/01/18 06:16:10;;;;;;;24.90;14.90;;;;;;;-3.88;100.00;99639.88;5040482;28;20033;-65
2024/01/18 06:18:36;;;;;;;27.67;15.77;;;;;;;-3.85;100.00;99639.66;5048649;28;20032;-65
2024/01/18 06:21:01;;;;;;;26.30;14.70;;;;;;;-3.86;100.00;99644.03;5042554;28;20035;-65
2024/01/18 06:23:26;;;;;;;26.80;14.67;;;;;;;-3.96;100.00;99647.38;5049340;28;20029;-65
2024/01/18 06:25:52;;;;;;;21.57;14.07;;;;;;;-3.98;100.00;99649.25;5041081;28;20033;-65
2024/01/18 06:28:17;;;;;;;23.70;13.93;;;;;;;-3.96;100.00;99649.97;5043431;28;20029;-65
2024/01/18 06:30:44;;;;;;;25.27;13.50;;;;;;;-3.95;100.00;99651.63;5038369;28;20060;-65
2024/01/18 06:33:11;;;;;;;20.33;13.30;;;;;;;-3.91;100.00;99664.28;5032913;28;20029;-65
2024/01/18 06:35:36;;;;;;;26.23;14.10;;;;;;;-3.91;100.00;99673.81;5040090;28;20474;-65
2024/01/18 06:38:02;;;;;;;24.20;13.50;;;;;;;-3.86;100.00;99679.50;5042054;28;20045;-65
2024/01/18 06:40:27;;;;;;;21.93;13.60;;;;;;;-3.79;100.00;99670.34;5037830;28;20083;-65
2024/01/18 06:42:52;;;;;;;21.83;13.07;;;;;;;-3.78;100.00;99685.81;5042875;28;20852;-65
2024/01/18 06:45:17;;;;;;;20.67;13.27;;;;;;;-3.77;100.00;99686.63;5033540;28;20048;-65
2024/01/18 06:47:43;;;;;;;26.27;13.20;;;;;;;-3.80;100.00;99687.69;5033743;28;20033;-65
2024/01/18 06:50:10;;;;;;;18.60;12.63;;;;;;;-3.79;100.00;99685.91;5034564;28;20455;-65
2024/01/18 06:52:36;;;;;;;24.27;13.07;;;;;;;-3.84;100.00;99685.41;5040727;28;20037;-65
2024/01/18 06:55:01;;;;;;;28.37;13.17;;;;;;;-3.85;100.00;99691.53;5036331;28;20449;-65
2024/01/18 06:57:27;;;;;;;20.90;13.17;;;;;;;-3.87;100.00;99690.81;5038913;28;20040;-65
2024/01/18 06:59:54;;;;;;;20.47;12.93;;;;;;;-3.88;100.00;99694.34;5037297;28;20028;-65
2024/01/18 07:02:19;;;;;;;20.40;12.77;;;;;;;-3.91;100.00;99691.97;5042899;28;20033;-65
2024/01/18 07:04:45;;;;;;;19.77;12.90;;;;;;;-3.88;100.00;99705.53;5037746;28;20037;-65
2024/01/18 07:07:10;;;;;;;22.83;13.17;;;;;;;-3.86;100.00;99710.63;5034698;28;20941;-65
2024/01/18 07:09:38;;;;;;;19.83;12.53;;;;;;;-3.85;100.00;99707.09;5038912;28;20514;-65
2024/01/18 07:12:04;;;;;;;24.70;12.97;;;;;;;-3.90;100.00;99709.19;5037867;28;20093;-65
2024/01/18 07:14:30;;;;;;;21.00;12.77;;;;;;;-3.88;100.00;99717.69;5038513;28;20029;-65
2024/01/18 07:16:55;;;;;;;22.10;12.23;;;;;;;-3.92;100.00;99718.84;5042585;28;20128;-65
2024/01/18 07:19:21;;;;;;;20.73;11.80;;;;;;;-3.93;100.00;99717.19;5044989;28;20028;-65
2024/01/18 07:21:46;;;;;;;21.07;12.70;;;;;;;-4.00;100.00;99721.13;5047682;28;20033;-65
2024/01/18 07:24:11;;;;;;;16.33;11.43;;;;;;;-3.98;100.00;99735.66;5040266;28;20040;-65
2024/01/18 07:26:37;;;;;;;19.47;11.97;;;;;;;-3.97;100.00;99746.84;5043620;28;20107;-65
2024/01/18 07:29:02;;;;;;;20.07;11.70;;;;;;;-3.96;100.00;99748.50;5045210;28;20788;-65
2024/01/18 07:31:28;;;;;;;20.20;12.03;;;;;;;-3.98;100.00;99752.97;5043810;28;20163;-64
2024/01/18 07:33:54;;;;;;;22.00;11.77;;;;;;;-4.05;100.00;99752.53;5034457;28;20035;-64
2024/01/18 07:36:19;;;;;;;19.77;11.97;;;;;;;-4.03;100.00;99757.66;5040578;28;20417;-64
2024/01/18 07:38:46;;;;;;;21.17;11.70;;;;;;;-4.10;100.00;99747.66;5040181;28;20551;-65
2024/01/18 07:41:11;;;;;;;21.67;12.10;;;;;;;-4.19;100.00;99761.25;5037000;28;20043;-65
2024/01/18 07:43:37;;;;;;;18.83;11.33;;;;;;;-4.36;100.00;99749.44;5043409;28;20025;-64
2024/01/18 07:46:02;;;;;;;20.23;11.53;;;;;;;-4.50;100.00;99767.66;5041718;28;20024;-64
2024/01/18 07:48:30;;;;;;;17.37;11.33;;;;;;;-4.60;100.00;99771.81;5044298;28;20032;-64
2024/01/18 07:50:55;;;;;;;24.33;12.43;;;;;;;-4.62;100.00;99770.25;5044911;28;20025;-64
2024/01/18 07:53:21;;;;;;;19.27;12.27;;;;;;;-4.59;100.00;99772.63;5046083;28;20098;-64
2024/01/18 07:55:46;;;;;;;21.87;12.03;;;;;;;-4.53;100.00;99782.59;5048565;28;20493;-64
2024/01/18 07:58:13;;;;;;;20.50;12.63;;;;;;;-4.50;100.00;99774.63;5044586;28;20029;-64
2024/01/18 08:00:39;;;;;;;21.47;13.83;;;;;;;-4.43;100.00;99788.81;5043538;28;20047;-64
2024/01/18 08:03:04;;;;;;;21.83;13.27;;;;;;;-4.38;100.00;99794.50;5034489;28;20653;-64
2024/01/18 08:05:29;;;;;;;20.47;12.43;;;;;;;-4.36;100.00;99797.84;5041858;28;20025;-64
2024/01/18 08:07:55;;;;;;;26.17;13.13;;;;;;;-4.35;100.00;99809.84;5043911;28;20032;-64
2024/01/18 08:10:20;;;;;;;22.27;13.60;;;;;;;-4.28;100.00;99803.34;5040302;28;20079;-64
2024/01/18 08:12:47;;;;;;;20.50;12.93;;;;;;;-4.23;100.00;99811.66;5044850;28;20104;-64
2024/01/18 08:15:12;;;;;;;25.60;14.20;;;;;;;-4.15;100.00;99813.72;5045233;28;20033;-64
2024/01/18 08:17:38;;;;;;;25.20;13.70;;;;;;;-4.11;100.00;99818.59;5046912;28;20040;-64
2024/01/18 08:20:04;;;;;;;23.13;13.47;;;;;;;-4.02;100.00;99824.13;5043175;28;20040;-64
2024/01/18 08:22:30;;;;;;;21.93;13.63;;;;;;;-3.94;100.00;99819.25;5042991;28;20142;-64
2024/01/18 08:24:56;;;;;;;21.60;13.63;;;;;;;-3.88;100.00;99824.00;5047700;28;20675;-64
2024/01/18 08:27:23;;;;;;;24.90;14.87;;;;;;;-3.83;100.00;99824.53;5037971;28;20853;-64
2024/01/18 08:29:49;;;;;;;22.97;13.67;;;;;;;-3.76;100.00;99828.34;5040371;28;20026;-64
2024/01/18 08:32:14;;;;;;;24.27;13.87;;;;;;;-3.70;100.00;99829.72;5042350;28;20665;-64
2024/01/18 08:34:40;;;;;;;25.30;13.67;;;;;;;-3.54;100.00;99835.50;5035354;28;20022;-65
2024/01/18 08:37:05;;;;;;;23.93;14.23;;;;;;;-3.41;100.00;99841.53;5040923;28;20029;-65
2024/01/18 08:39:30;;;;;;;25.30;14.40;;;;;;;-3.31;100.00;99842.53;5036692;28;20028;-65
2024/01/18 08:41:59;;;;;;;25.73;14.20;;;;;;;-3.24;100.00;99848.94;5038838;28;20056;-65
2024/01/18 08:44:24;;;;;;;24.10;14.73;;;;;;;-3.15;100.00;99847.50;5039653;28;20052;-65
2024/01/18 08:46:50;;;;;;;24.87;14.00;;;;;;;-3.09;100.00;99854.00;5043428;28;20021;-65
2024/01/18 08:49:16;;;;;;;24.27;13.43;;;;;;;-2.96;100.00;99852.19;5045511;28;20028;-65
2024/01/18 08:51:41;;;;;;;25.60;14.43;;;;;;;-2.84;100.00;99854.75;5041899;28;20148;-65
2024/01/18 08:54:07;;;;;;;22.57;13.30;;;;;;;-2.78;100.00;99866.47;5042168;28;20041;-65
2024/01/18 08:56:35;;;;;;;25.40;14.00;;;;;;;-2.72;100.00;99879.03;5041718;28;20790;-66
2024/01/18 08:59:00;;;;;;;19.47;13.87;;;;;;;-2.67;100.00;99881.28;5040980;28;20028;-65
2024/01/18 09:01:25;;;;;;;24.83;14.90;;;;;;;-2.60;100.00;99879.94;5037670;28;20047;-66
2024/01/18 09:03:51;;;;;;;21.83;14.30;;;;;;;-2.49;100.00;99882.56;5044731;28;20654;-65
2024/01/18 09:06:16;;;;;;;26.17;15.30;;;;;;;-2.34;100.00;99884.03;5031918;28;20056;-65
2024/01/18 09:08:41;;;;;;;22.13;14.10;;;;;;;-2.22;100.00;99890.13;5038380;28;20035;-66
2024/01/18 09:11:07;;;;;;;25.90;13.83;;;;;;;-2.06;100.00;99889.81;5043722;28;20040;-66
2024/01/18 09:13:32;;;;;;;21.63;13.23;;;;;;;-1.99;100.00;99898.84;5032927;28;20028;-66
2024/01/18 09:15:57;;;;;;;21.00;12.30;;;;;;;-1.85;100.00;99900.41;5034803;28;20018;-65
2024/01/18 09:18:23;;;;;;;18.77;12.50;;;;;;;-1.77;100.00;99904.09;5031472;28;20033;-66
2024/01/18 09:20:48;;;;;;;19.30;11.67;;;;;;;-1.67;100.00;99918.09;5029293;28;20399;-66
2024/01/18 09:23:14;;;;;;;19.53;12.00;;;;;;;-1.58;100.00;99920.00;5038178;28;20078;-66
2024/01/18 09:25:41;;;;;;;18.13;11.80;;;;;;;-1.52;100.00;99926.50;5040333;28;20399;-66
2024/01/18 09:28:10;;;;;;;23.57;13.40;;;;;;;-1.46;100.00;99933.00;5042889;28;20420;-66
2024/01/18 09:30:36;;;;;;;23.20;13.40;;;;;;;-1.38;100.00;99936.72;5039228;28;20077;-66
2024/01/18 09:33:02;;;;;;;18.43;12.07;;;;;;;-1.34;100.00;99938.13;5038506;28;20033;-66
2024/01/18 09:35:28;;;;;;;19.73;11.83;;;;;;;-1.33;100.00;99939.78;5048253;28;20033;-66
2024/01/18 09:37:54;;;;;;;17.17;10.60;;;;;;;-1.30;100.00;99942.16;5042108;28;20032;-65
2024/01/18 09:40:19;;;;;;;16.77;9.60;;;;;;;-1.26;100.00;99956.59;5042149;28;20016;-65
2024/01/18 09:42:47;;;;;;;14.07;9.13;;;;;;;-1.19;100.00;99956.97;5042783;28;20017;-66
2024/01/18 09:45:14;;;;;;;17.90;9.50;;;;;;;-1.07;100.00;99963.03;5048851;28;20052;-66
2024/01/18 09:47:44;;;;;;;11.53;8.10;;;;;;;-0.99;100.00;99969.28;5042805;28;20569;-66
2024/01/18 09:50:10;;;;;;;13.48;8.30;;;;;;;-0.90;100.00;99970.34;5049205;28;20033;-66
2024/01/18 09:52:36;;;;;;;13.97;9.10;;;;;;;-0.83;100.00;99979.38;5039926;28;20028;-66
2024/01/18 09:55:01;;;;;;;19.43;10.33;;;;;;;-0.75;100.00;99983.97;5039652;28;20018;-66
2024/01/18 09:57:33;;;;;;;18.20;10.60;;;;;;;-0.65;100.00;99987.53;5050813;28;20515;-66
2024/01/18 10:00:05;;;;;;;17.63;8.83;;;;;;;-0.58;100.00;99993.91;5039696;28;20028;-66
2024/01/18 10:02:30;;;;;;;16.30;9.30;;;;;;;-0.52;100.00;99998.66;5042789;28;20107;-66
2024/01/18 10:05:00;;;;;;;20.13;10.37;;;;;;;-0.45;100.00;100001.63;5034185;28;20159;-66
2024/01/18 10:07:26;;;;;;;14.32;7.45;;;;;;;-0.39;100.00;100008.94;5038969;28;20139;-66
2024/01/18 10:09:51;;;;;;;21.93;10.40;;;;;;;-0.30;100.00;100013.44;5041132;28;20028;-66
2024/01/18 10:12:16;;;;;;;13.33;7.37;;;;;;;-0.26;100.00;100009.66;5043700;28;20086;-66
2024/01/18 10:14:43;;;;;;;22.53;11.03;;;;;;;-0.16;100.00;100023.63;5041393;28;20257;-66
2024/01/18 10:17:10;;;;;;;18.13;9.37;;;;;;;-0.09;100.00;100035.22;5042445;28;20029;-68
2024/01/18 10:19:36;;;;;;;15.30;8.30;;;;;;;0.03;100.00;100028.19;5045603;28;20605;-66
2024/01/18 10:22:01;;;;;;;15.30;8.70;;;;;;;0.12;100.00;100035.28;5038794;28;20036;-66
2024/01/18 10:24:28;;;;;;;18.00;8.07;;;;;;;0.22;100.00;100033.56;5039462;28;20119;-66
2024/01/18 10:27:04;;;;;;;11.50;6.20;;;;;;;0.25;100.00;100033.31;5046700;28;20435;-66
2024/01/18 10:29:36;;;;;;;11.60;6.10;;;;;;;0.32;100.00;100045.91;5040635;28;20033;-66
2024/01/18 10:32:03;;;;;;;10.13;5.17;;;;;;;0.37;100.00;100048.97;5041284;28;20058;-66
2024/01/18 10:34:33;;;;;;;14.97;6.03;;;;;;;0.45;100.00;100051.78;5041187;28;20029;-66
2024/01/18 10:36:58;;;;;;;8.17;4.47;;;;;;;0.54;100.00;100058.84;5043207;28;20132;-66
2024/01/18 10:39:24;;;;;;;10.97;4.77;;;;;;;0.61;100.00;100062.66;5033208;28;20025;-66
2024/01/18 10:41:49;;;;;;;10.43;4.67;;;;;;;0.73;100.00;100056.41;5031259;28;20091;-64
2024/01/18 10:44:15;;;;;;;9.33;4.60;;;;;;;0.82;100.00;100060.03;5030315;28;20502;-64
2024/01/18 10:46:41;;;;;;;7.80;3.90;;;;;;;0.81;100.00;100048.75;5041401;28;20031;-64
2024/01/18 10:49:07;;;;;;;10.87;4.03;;;;;;;0.95;99.53;100052.00;5039264;28;20215;-64
2024/01/18 10:51:32;;;;;;;9.17;4.67;;;;;;;0.99;99.12;100059.47;5034654;28;20947;-64
2024/01/18 10:53:59;;;;;;;8.07;3.87;;;;;;;1.07;99.08;100064.03;5040600;28;20041;-64
2024/01/18 10:56:24;;;;;;;7.73;3.70;;;;;;;1.18;98.75;100067.41;5041752;28;20036;-64
2024/01/18 10:58:49;;;;;;;6.30;3.30;;;;;;;1.26;98.31;100068.56;5040443;28;20039;-64
2024/01/18 11:01:17;;;;;;;6.17;3.50;;;;;;;1.35;97.23;100078.22;5038763;28;20456;-64
2024/01/18 11:03:43;;;;;;;6.87;3.60;;;;;;;1.43;96.59;100079.22;5039942;28;20139;-64
2024/01/18 11:06:12;;;;;;;9.73;3.70;;;;;;;1.47;96.18;100085.88;5036190;28;20037;-64